createdAt,value
2018-07-23T00:00:45.623Z,30.40
2018-07-23T00:03:14.723Z,24.30
2018-07-23T00:05:43.773Z,26.40
2018-07-23T00:08:12.769Z,30.87
2018-07-23T00:10:42.138Z,21.90
2018-07-23T00:13:11.089Z,25.10
2018-07-23T00:15:40.055Z,23.70
2018-07-23T00:18:09.038Z,26.63
2018-07-23T00:20:38.025Z,23.90
2018-07-23T00:23:07.545Z,25.83
2018-07-23T00:25:36.829Z,23.73
2018-07-23T00:28:05.861Z,22.93
2018-07-23T00:30:34.904Z,24.60
2018-07-23T00:33:03.979Z,24.00
2018-07-23T00:35:32.949Z,22.80
2018-07-23T00:38:02.068Z,26.13
2018-07-23T00:40:31.397Z,23.27
2018-07-23T00:43:00.372Z,26.93
2018-07-23T00:45:32.077Z,25.30
2018-07-23T00:48:01.296Z,24.70
2018-07-23T00:50:30.254Z,22.37
2018-07-23T00:52:59.210Z,23.90
2018-07-23T00:55:28.209Z,22.50
2018-07-23T00:57:57.216Z,24.33
2018-07-23T01:00:26.230Z,21.77
2018-07-23T01:02:55.280Z,18.90
2018-07-23T01:05:24.844Z,18.70
2018-07-23T01:07:53.828Z,22.13
2018-07-23T01:10:22.818Z,19.20
2018-07-23T01:12:51.868Z,23.00
2018-07-23T01:15:21.731Z,20.20
2018-07-23T01:17:50.737Z,19.97
2018-07-23T01:20:19.714Z,18.93
2018-07-23T01:22:48.688Z,21.40
2018-07-23T01:25:17.634Z,18.27
2018-07-23T01:27:46.578Z,17.53
2018-07-23T01:30:15.584Z,17.33
2018-07-23T01:32:44.557Z,18.97
2018-07-23T01:35:13.580Z,19.13
2018-07-23T01:37:42.551Z,16.37
2018-07-23T01:40:11.506Z,21.07
2018-07-23T01:42:40.594Z,18.23
2018-07-23T01:45:09.617Z,16.67
2018-07-23T01:47:38.569Z,16.10
2018-07-23T01:50:07.590Z,19.77
2018-07-23T01:52:36.588Z,21.20
2018-07-23T01:55:06.324Z,20.20
2018-07-23T01:57:35.341Z,18.93
2018-07-23T02:00:05.185Z,19.30
2018-07-23T02:02:34.173Z,17.80
2018-07-23T02:05:03.145Z,17.57
2018-07-23T02:07:32.088Z,18.30
2018-07-23T02:10:01.050Z,20.87
2018-07-23T02:12:30.011Z,18.00
2018-07-23T02:14:59.237Z,20.03
2018-07-23T02:17:28.195Z,16.27
2018-07-23T02:19:57.182Z,20.17
2018-07-23T02:22:26.168Z,20.17
2018-07-23T02:24:55.132Z,22.87
2018-07-23T02:27:24.147Z,18.10
2018-07-23T02:29:53.601Z,19.00
2018-07-23T02:32:22.674Z,18.03
2018-07-23T02:34:51.761Z,19.33
2018-07-23T02:37:20.750Z,17.70
2018-07-23T02:39:50.064Z,21.00
2018-07-23T02:42:19.238Z,19.20
2018-07-23T02:44:48.341Z,19.50
2018-07-23T02:47:17.375Z,21.30
2018-07-23T02:49:46.534Z,21.70
2018-07-23T02:52:15.556Z,20.30
2018-07-23T02:54:44.689Z,21.10
2018-07-23T02:57:13.729Z,18.93
2018-07-23T02:59:42.783Z,23.33
2018-07-23T03:02:11.805Z,20.60
2018-07-23T03:04:40.859Z,19.63
2018-07-23T03:07:09.961Z,19.77
2018-07-23T03:09:39.142Z,19.20
2018-07-23T03:12:08.209Z,19.77
2018-07-23T03:14:37.231Z,20.27
2018-07-23T03:17:06.326Z,19.87
2018-07-23T03:19:35.422Z,21.73
2018-07-23T03:22:04.521Z,24.13
2018-07-23T03:24:33.596Z,19.10
2018-07-23T03:27:02.705Z,21.50
2018-07-23T03:29:31.756Z,26.37
2018-07-23T03:32:01.705Z,24.90
2018-07-23T03:34:30.784Z,26.17
2018-07-23T03:37:00.820Z,23.33
2018-07-23T03:39:29.901Z,19.90
2018-07-23T03:41:59.145Z,20.93
2018-07-23T03:44:28.237Z,20.10
2018-07-23T03:46:57.345Z,18.13
2018-07-23T03:49:26.395Z,16.73
2018-07-23T03:51:55.405Z,19.73
2018-07-23T03:54:24.441Z,18.67
2018-07-23T03:56:53.616Z,15.70
2018-07-23T03:59:23.112Z,16.93
2018-07-23T04:01:52.245Z,17.40
2018-07-23T04:04:21.672Z,19.30
2018-07-23T04:06:50.749Z,17.40
2018-07-23T04:09:19.819Z,18.97
2018-07-23T04:11:48.920Z,17.40
2018-07-23T04:14:17.969Z,20.50
2018-07-23T04:16:47.005Z,22.00
2018-07-23T04:19:16.032Z,18.80
2018-07-23T04:21:45.335Z,20.93
2018-07-23T04:24:14.484Z,20.00
2018-07-23T04:26:43.508Z,24.00
2018-07-23T04:29:12.556Z,25.53
2018-07-23T04:31:41.578Z,22.70
2018-07-23T04:34:10.615Z,24.80
2018-07-23T04:36:39.563Z,22.27
2018-07-23T04:39:08.908Z,23.37
2018-07-23T04:41:37.894Z,22.43
2018-07-23T04:44:06.884Z,23.67
2018-07-23T04:46:35.874Z,24.13
2018-07-23T04:49:05.008Z,23.80
2018-07-23T04:51:34.031Z,23.40
2018-07-23T04:54:02.973Z,23.13
2018-07-23T04:56:31.985Z,23.73
2018-07-23T04:59:00.973Z,24.10
2018-07-23T05:01:29.948Z,23.07
2018-07-23T05:03:58.936Z,20.93
2018-07-23T05:06:28.353Z,23.87
2018-07-23T05:08:57.322Z,26.20
2018-07-23T05:11:26.400Z,24.00
2018-07-23T05:13:55.390Z,28.70
2018-07-23T05:16:24.466Z,26.00
2018-07-23T05:18:53.681Z,28.57
2018-07-23T05:21:22.765Z,29.40
2018-07-23T05:23:51.897Z,28.30
2018-07-23T05:26:20.893Z,27.70
2018-07-23T05:28:50.094Z,27.80
2018-07-23T05:31:19.110Z,26.57
2018-07-23T05:33:48.185Z,27.90
2018-07-23T05:36:17.232Z,26.00
2018-07-23T05:38:46.273Z,28.37
2018-07-23T05:41:15.805Z,27.70
2018-07-23T05:43:44.833Z,27.10
2018-07-23T05:46:13.824Z,28.20
2018-07-23T05:48:42.849Z,29.57
2018-07-23T05:51:11.918Z,27.67
2018-07-23T05:53:40.949Z,28.50
2018-07-23T05:56:10.371Z,27.83
2018-07-23T05:58:39.532Z,26.03
2018-07-23T06:01:08.561Z,26.40
2018-07-23T06:03:37.634Z,24.47
2018-07-23T06:06:06.749Z,28.77
2018-07-23T06:08:36.047Z,24.57
2018-07-23T06:11:05.271Z,26.37
2018-07-23T06:13:34.327Z,25.97
2018-07-23T06:16:03.288Z,24.07
2018-07-23T06:18:32.257Z,22.90
2018-07-23T06:21:01.549Z,23.57
2018-07-23T06:23:30.609Z,20.87
2018-07-23T06:25:59.716Z,22.87
2018-07-23T06:28:28.702Z,22.90
2018-07-23T06:30:57.834Z,21.27
2018-07-23T06:33:26.833Z,22.73
2018-07-23T06:35:55.925Z,23.17
2018-07-23T06:38:25.497Z,21.47
2018-07-23T06:40:54.600Z,23.20
2018-07-23T06:43:23.735Z,23.73
2018-07-23T06:45:52.965Z,27.27
2018-07-23T06:48:22.018Z,25.60
2018-07-23T06:50:51.117Z,26.00
2018-07-23T06:53:20.333Z,23.87
2018-07-23T06:55:49.314Z,27.00
2018-07-23T06:58:18.350Z,25.90
2018-07-23T07:00:47.431Z,27.20
2018-07-23T07:03:16.612Z,24.50
2018-07-23T07:05:45.530Z,23.20
2018-07-23T07:08:14.845Z,29.70
2018-07-23T07:10:43.927Z,29.07
2018-07-23T07:13:13.026Z,25.97
2018-07-23T07:15:42.061Z,25.50
2018-07-23T07:18:11.317Z,24.07
2018-07-23T07:20:40.531Z,28.97
2018-07-23T07:23:09.593Z,30.40
2018-07-23T07:25:38.568Z,30.23
2018-07-23T07:28:08.343Z,31.40
2018-07-23T07:30:37.407Z,28.27
2018-07-23T07:33:06.813Z,28.67
2018-07-23T07:35:36.094Z,30.00
2018-07-23T07:38:05.197Z,29.60
2018-07-23T07:40:34.581Z,28.33
2018-07-23T07:43:04.240Z,24.30
2018-07-23T07:45:34.336Z,26.90
2018-07-23T07:48:04.323Z,28.43
2018-07-23T07:50:33.503Z,25.70
2018-07-23T07:53:02.693Z,25.60
2018-07-23T07:55:31.841Z,26.20
2018-07-23T07:58:02.132Z,25.80
2018-07-23T08:00:32.121Z,26.37
2018-07-23T08:03:01.249Z,27.00
2018-07-23T08:05:30.348Z,26.40
2018-07-23T08:07:59.750Z,26.10
2018-07-23T08:10:29.201Z,24.97
2018-07-23T08:12:58.504Z,29.83
2018-07-23T08:15:28.050Z,25.90
2018-07-23T08:17:57.225Z,28.10
2018-07-23T08:20:26.371Z,28.03
2018-07-23T08:22:55.804Z,26.70
2018-07-23T08:25:25.237Z,25.90
2018-07-23T08:27:54.701Z,27.30
2018-07-23T08:30:23.728Z,26.53
2018-07-23T08:32:53.174Z,24.17
2018-07-23T08:35:23.124Z,25.60
2018-07-23T08:37:52.746Z,24.17
2018-07-23T08:40:21.990Z,27.53
2018-07-23T08:42:51.107Z,24.17
2018-07-23T08:45:20.655Z,25.23
2018-07-23T08:47:50.051Z,27.13
2018-07-23T08:50:19.303Z,27.17
2018-07-23T08:52:48.595Z,26.17
2018-07-23T08:55:17.825Z,26.60
2018-07-23T08:57:47.224Z,26.57
2018-07-23T09:00:16.702Z,27.53
2018-07-23T09:02:46.131Z,24.00
2018-07-23T09:05:15.331Z,25.90
2018-07-23T09:07:44.513Z,26.93
2018-07-23T09:10:13.628Z,27.00
2018-07-23T09:12:42.758Z,26.17
2018-07-23T09:15:12.150Z,26.00
2018-07-23T09:17:41.401Z,27.10
2018-07-23T09:20:11.007Z,28.70
2018-07-23T09:22:40.523Z,27.97
2018-07-23T09:25:09.740Z,28.00
2018-07-23T09:27:38.850Z,28.73
2018-07-23T09:30:12.323Z,30.17
2018-07-23T09:32:41.480Z,26.20
2018-07-23T09:35:10.720Z,26.97
2018-07-23T09:37:39.805Z,27.97
2018-07-23T09:40:09.173Z,28.37
2018-07-23T09:42:38.409Z,27.93
2018-07-23T09:45:07.760Z,27.10
2018-07-23T09:47:36.873Z,27.60
2018-07-23T09:50:05.994Z,29.80
2018-07-23T09:52:35.002Z,29.90
2018-07-23T09:55:04.178Z,32.33
2018-07-23T09:57:33.506Z,30.70
2018-07-23T10:00:02.737Z,35.33
2018-07-23T10:02:31.950Z,37.13
2018-07-23T10:05:01.006Z,36.43
2018-07-23T10:07:30.115Z,33.90
2018-07-23T10:09:59.134Z,32.60
2018-07-23T10:12:28.132Z,31.17
2018-07-23T10:14:57.255Z,29.50
2018-07-23T10:17:26.352Z,33.90
2018-07-23T10:19:55.402Z,33.43
2018-07-23T10:22:24.713Z,36.33
2018-07-23T10:24:53.908Z,32.70
2018-07-23T10:27:23.014Z,33.87
2018-07-23T10:29:52.277Z,33.77
2018-07-23T10:32:21.390Z,35.83
2018-07-23T10:34:50.442Z,32.57
2018-07-23T10:37:19.979Z,29.30
2018-07-23T10:39:49.218Z,29.70
2018-07-23T10:42:18.228Z,29.80
2018-07-23T10:44:47.192Z,29.67
2018-07-23T10:47:16.312Z,28.57
2018-07-23T10:49:45.302Z,27.63
2018-07-23T10:52:14.354Z,28.57
2018-07-23T10:54:43.422Z,30.30
2018-07-23T10:57:12.552Z,31.77
2018-07-23T10:59:41.514Z,28.27
2018-07-23T11:02:10.549Z,28.03
2018-07-23T11:04:39.564Z,29.10
2018-07-23T11:07:09.345Z,25.10
2018-07-23T11:09:38.418Z,33.70
2018-07-23T11:12:07.761Z,29.90
2018-07-23T11:14:36.771Z,28.27
2018-07-23T11:17:05.845Z,26.63
2018-07-23T11:19:34.869Z,25.13
2018-07-23T11:22:04.233Z,27.90
2018-07-23T11:24:33.290Z,24.57
2018-07-23T11:27:02.735Z,23.87
2018-07-23T11:29:31.893Z,23.97
2018-07-23T11:32:02.462Z,21.57
2018-07-23T11:34:32.013Z,25.03
2018-07-23T11:37:02.666Z,24.07
2018-07-23T11:39:35.992Z,24.47
2018-07-23T11:42:06.593Z,25.77
2018-07-23T11:44:36.618Z,24.50
2018-07-23T11:47:06.304Z,22.97
2018-07-23T11:49:36.716Z,22.40
2018-07-23T11:52:05.813Z,22.40
2018-07-23T11:54:34.861Z,22.07
2018-07-23T11:57:03.928Z,19.37
2018-07-23T11:59:32.908Z,18.50
2018-07-23T12:02:02.350Z,16.03
2018-07-23T12:04:32.394Z,19.00
2018-07-23T12:07:01.396Z,19.10
2018-07-23T12:09:30.917Z,21.33
2018-07-23T12:12:00.172Z,22.83
2018-07-23T12:14:29.809Z,23.07
2018-07-23T12:16:59.209Z,25.93
2018-07-23T12:19:28.401Z,23.93
2018-07-23T12:21:57.584Z,21.77
2018-07-23T12:24:26.557Z,20.37
2018-07-23T12:26:56.041Z,20.73
2018-07-23T12:29:25.121Z,18.13
2018-07-23T12:31:54.189Z,17.90
2018-07-23T12:34:23.269Z,22.00
2018-07-23T12:36:52.300Z,22.30
2018-07-23T12:39:21.403Z,21.67
2018-07-23T12:41:50.880Z,22.00
2018-07-23T12:44:20.054Z,20.70
2018-07-23T12:46:49.114Z,22.40
2018-07-23T12:49:18.237Z,21.67
2018-07-23T12:51:47.320Z,22.13
2018-07-23T12:54:16.363Z,19.40
2018-07-23T12:56:45.498Z,21.90
2018-07-23T12:59:14.539Z,22.40
2018-07-23T13:01:43.635Z,22.70
2018-07-23T13:04:12.701Z,24.50
2018-07-23T13:06:41.829Z,22.70
2018-07-23T13:09:12.772Z,21.63
2018-07-23T13:11:41.829Z,20.70
2018-07-23T13:14:10.932Z,21.90
2018-07-23T13:16:40.027Z,23.40
2018-07-23T13:19:09.094Z,24.80
2018-07-23T13:21:38.152Z,20.40
2018-07-23T13:24:07.187Z,23.57
2018-07-23T13:26:36.340Z,23.73
2018-07-23T13:29:05.845Z,23.57
2018-07-23T13:31:34.876Z,23.00
2018-07-23T13:34:03.889Z,20.97
2018-07-23T13:36:33.068Z,18.60
2018-07-23T13:39:02.192Z,17.10
2018-07-23T13:41:31.240Z,19.57
2018-07-23T13:44:00.425Z,18.67
2018-07-23T13:46:29.954Z,19.87
2018-07-23T13:48:59.185Z,18.43
2018-07-23T13:51:28.372Z,17.73
2018-07-23T13:53:57.414Z,19.93
2018-07-23T13:56:26.464Z,20.30
2018-07-23T13:58:55.577Z,19.90
2018-07-23T14:01:24.763Z,19.57
2018-07-23T14:03:53.917Z,19.37
2018-07-23T14:06:23.060Z,20.33
2018-07-23T14:08:52.140Z,19.80
2018-07-23T14:11:21.356Z,19.73
2018-07-23T14:13:50.336Z,18.50
2018-07-23T14:16:19.468Z,19.90
2018-07-23T14:18:48.586Z,20.43
2018-07-23T14:21:17.549Z,20.17
2018-07-23T14:23:46.557Z,19.00
2018-07-23T14:26:15.793Z,20.30
2018-07-23T14:28:44.875Z,19.43
2018-07-23T14:31:15.081Z,19.30
2018-07-23T14:33:44.173Z,18.80
2018-07-23T14:36:13.269Z,20.57
2018-07-23T14:38:42.354Z,20.50
2018-07-23T14:41:11.461Z,17.97
2018-07-23T14:43:40.437Z,18.70
2018-07-23T14:46:09.912Z,17.37
2018-07-23T14:48:38.954Z,18.07
2018-07-23T14:51:08.390Z,18.70
2018-07-23T14:53:37.448Z,18.30
2018-07-23T14:56:06.498Z,17.60
2018-07-23T14:58:35.496Z,18.80
2018-07-23T15:01:04.643Z,18.30
2018-07-23T15:03:33.593Z,17.00
2018-07-23T15:06:02.581Z,17.30
2018-07-23T15:08:32.090Z,17.03
2018-07-23T15:11:01.299Z,16.07
2018-07-23T15:13:30.450Z,16.47
2018-07-23T15:15:59.421Z,17.37
2018-07-23T15:18:28.813Z,15.77
2018-07-23T15:20:57.854Z,14.50
2018-07-23T15:23:26.988Z,15.50
2018-07-23T15:25:56.444Z,15.50
2018-07-23T15:28:25.583Z,13.87
2018-07-23T15:30:54.792Z,13.50
2018-07-23T15:33:24.244Z,13.77
2018-07-23T15:35:53.761Z,14.00
2018-07-23T15:38:22.998Z,12.37
2018-07-23T15:40:52.861Z,14.03
2018-07-23T15:43:21.977Z,14.90
2018-07-23T15:45:51.488Z,14.50
2018-07-23T15:48:20.357Z,14.53
2018-07-23T15:50:49.420Z,15.10
2018-07-23T15:53:18.781Z,15.27
2018-07-23T15:55:47.945Z,15.60
2018-07-23T15:58:16.996Z,16.20
2018-07-23T16:00:45.977Z,17.40
2018-07-23T16:03:14.942Z,17.77
2018-07-23T16:05:43.920Z,16.57
2018-07-23T16:08:13.754Z,16.70
2018-07-23T16:10:42.773Z,17.20
2018-07-23T16:13:12.643Z,16.30
2018-07-23T16:15:41.596Z,17.70
2018-07-23T16:18:11.279Z,18.60
2018-07-23T16:20:40.277Z,18.17
2018-07-23T16:23:09.274Z,18.40
2018-07-23T16:25:38.836Z,16.67
2018-07-23T16:28:07.882Z,17.27
2018-07-23T16:30:37.219Z,16.97
2018-07-23T16:33:06.542Z,17.60
2018-07-23T16:35:35.556Z,17.07
2018-07-23T16:38:04.537Z,15.60
2018-07-23T16:40:33.762Z,18.47
2018-07-23T16:43:02.902Z,17.60
2018-07-23T16:45:31.961Z,16.80
2018-07-23T16:48:00.954Z,16.63
2018-07-23T16:50:29.926Z,17.40
2018-07-23T16:52:59.165Z,17.20
2018-07-23T16:55:28.297Z,16.70
2018-07-23T16:57:57.276Z,17.03
2018-07-23T17:00:26.214Z,17.43
2018-07-23T17:02:55.268Z,18.57
2018-07-23T17:05:24.378Z,19.73
2018-07-23T17:07:53.412Z,21.27
2018-07-23T17:10:22.389Z,17.87
2018-07-23T17:12:51.385Z,18.77
2018-07-23T17:15:21.368Z,15.40
2018-07-23T17:17:50.388Z,17.63
2018-07-23T17:20:19.937Z,16.50
2018-07-23T17:22:49.236Z,17.37
2018-07-23T17:25:18.304Z,18.23
2018-07-23T17:27:47.360Z,16.47
2018-07-23T17:30:16.329Z,16.60
2018-07-23T17:32:45.601Z,16.10
2018-07-23T17:35:15.104Z,15.73
2018-07-23T17:37:44.115Z,16.10
2018-07-23T17:40:13.694Z,16.37
2018-07-23T17:42:42.670Z,17.13
2018-07-23T17:45:11.718Z,15.17
2018-07-23T17:47:40.734Z,16.03
2018-07-23T17:50:10.284Z,16.13
2018-07-23T17:52:41.102Z,16.60
2018-07-23T17:55:10.296Z,16.50
2018-07-23T17:57:40.075Z,18.63
2018-07-23T18:00:10.248Z,21.30
2018-07-23T18:02:39.407Z,21.93
2018-07-23T18:05:09.404Z,23.33
2018-07-23T18:07:38.593Z,23.87
2018-07-23T18:10:07.768Z,24.87
2018-07-23T18:12:39.069Z,26.00
2018-07-23T18:15:08.328Z,26.23
2018-07-23T18:17:37.704Z,26.80
2018-07-23T18:20:07.230Z,28.80
2018-07-23T18:22:38.065Z,24.83
2018-07-23T18:25:08.431Z,24.73
2018-07-23T18:27:37.845Z,26.80
2018-07-23T18:30:07.968Z,24.70
2018-07-23T18:32:37.215Z,26.17
2018-07-23T18:35:06.974Z,25.70
2018-07-23T18:37:36.764Z,27.27
2018-07-23T18:40:07.574Z,28.33
2018-07-23T18:42:37.171Z,26.40
2018-07-23T18:45:06.979Z,26.27
2018-07-23T18:47:39.416Z,25.50
2018-07-23T18:50:09.487Z,31.47
2018-07-23T18:55:16.213Z,36.23
2018-07-23T18:57:47.283Z,34.80
2018-07-23T19:00:21.238Z,37.00
2018-07-23T19:02:50.562Z,30.73
2018-07-23T19:05:20.550Z,34.03
2018-07-23T19:07:49.822Z,33.00
2018-07-23T19:10:19.300Z,32.10
2018-07-23T19:12:48.912Z,30.50
2018-07-23T19:15:18.673Z,32.50
2018-07-23T19:17:50.955Z,31.27
2018-07-23T19:20:21.070Z,32.53
2018-07-23T19:22:51.765Z,35.33
2018-07-23T19:25:21.316Z,41.60
2018-07-23T19:27:50.578Z,35.67
2018-07-23T19:30:19.957Z,40.97
2018-07-23T19:32:49.498Z,38.00
2018-07-23T19:35:18.893Z,36.47
2018-07-23T19:37:48.360Z,32.53
2018-07-23T19:40:17.733Z,34.17
2018-07-23T19:42:47.120Z,35.27
2018-07-23T19:45:16.764Z,32.40
2018-07-23T19:47:46.097Z,32.20
2018-07-23T19:50:15.681Z,40.00
2018-07-23T19:52:45.234Z,41.53
2018-07-23T19:55:14.728Z,39.13
2018-07-23T19:57:44.182Z,42.10
2018-07-23T20:00:13.548Z,39.57
2018-07-23T20:02:42.947Z,39.17
2018-07-23T20:05:13.167Z,39.40
2018-07-23T20:07:42.641Z,43.87
2018-07-23T20:10:12.524Z,42.87
2018-07-23T20:12:41.788Z,44.60
2018-07-23T20:15:11.216Z,37.77
2018-07-23T20:17:40.360Z,38.80
2018-07-23T20:20:09.735Z,33.87
2018-07-23T20:22:38.861Z,31.80
2018-07-23T20:25:08.084Z,23.30
2018-07-23T20:27:37.305Z,24.47
2018-07-23T20:30:06.873Z,22.87
2018-07-23T20:32:36.337Z,21.90
2018-07-23T20:35:05.887Z,19.97
2018-07-23T20:37:34.970Z,20.67
2018-07-23T20:40:04.173Z,20.70
2018-07-23T20:42:33.324Z,21.07
2018-07-23T20:45:02.407Z,22.77
2018-07-23T20:47:31.828Z,20.53
2018-07-23T20:50:01.321Z,20.47
2018-07-23T20:52:30.732Z,19.03
2018-07-23T20:55:00.212Z,18.20
2018-07-23T20:57:29.605Z,17.00
2018-07-23T21:00:00.163Z,15.47
2018-07-23T21:02:30.847Z,15.73
2018-07-23T21:05:00.419Z,15.97
2018-07-23T21:07:30.040Z,17.60
2018-07-23T21:09:59.670Z,15.93
2018-07-23T21:12:29.285Z,15.50
2018-07-23T21:14:58.851Z,14.23
2018-07-23T21:17:28.092Z,14.90
2018-07-23T21:19:57.373Z,15.90
2018-07-23T21:22:27.328Z,17.13
2018-07-23T21:24:56.568Z,18.77
2018-07-23T21:27:26.031Z,16.10
2018-07-23T21:29:55.600Z,17.50
2018-07-23T21:32:25.290Z,17.67
2018-07-23T21:34:55.089Z,17.93
2018-07-23T21:37:24.553Z,17.70
2018-07-23T21:39:53.870Z,17.07
2018-07-23T21:42:23.496Z,17.13
2018-07-23T21:44:52.910Z,18.40
2018-07-23T21:47:22.212Z,17.07
2018-07-23T21:49:51.652Z,17.80
2018-07-23T21:52:21.089Z,17.53
2018-07-23T21:54:50.526Z,17.37
2018-07-23T21:57:19.940Z,18.83
2018-07-23T21:59:49.483Z,16.30
2018-07-23T22:02:19.073Z,17.90
2018-07-23T22:04:48.659Z,18.13
2018-07-23T22:07:18.481Z,17.37
2018-07-23T22:09:48.342Z,17.17
2018-07-23T22:12:17.602Z,18.07
2018-07-23T22:14:48.042Z,18.60
2018-07-23T22:17:18.138Z,18.13
2018-07-23T22:19:47.637Z,17.23
2018-07-23T22:22:17.305Z,17.97
2018-07-23T22:24:46.824Z,17.70
2018-07-23T22:27:16.154Z,19.37
2018-07-23T22:29:45.647Z,17.47
2018-07-23T22:32:14.995Z,18.00
2018-07-23T22:34:44.537Z,17.80
2018-07-23T22:37:13.561Z,18.83
2018-07-23T22:39:43.195Z,19.57
2018-07-23T22:42:12.685Z,20.70
2018-07-23T22:44:42.645Z,18.53
2018-07-23T22:47:11.981Z,19.93
2018-07-23T22:49:40.955Z,21.17
2018-07-23T22:52:09.944Z,20.63
2018-07-23T22:54:38.939Z,19.07
2018-07-23T22:57:08.384Z,21.10
2018-07-23T22:59:37.401Z,20.97
2018-07-23T23:02:06.552Z,22.83
2018-07-23T23:04:35.584Z,23.03
2018-07-23T23:07:04.684Z,22.80
2018-07-23T23:09:33.839Z,21.77
2018-07-23T23:12:03.146Z,21.37
2018-07-23T23:14:32.080Z,22.17
2018-07-23T23:17:01.087Z,22.37
2018-07-23T23:19:30.793Z,23.17
2018-07-23T23:22:00.617Z,22.20
2018-07-23T23:24:29.640Z,21.70
2018-07-23T23:26:58.608Z,26.00
2018-07-23T23:29:27.597Z,23.13
2018-07-23T23:31:56.571Z,25.50
2018-07-23T23:34:25.908Z,23.80
2018-07-23T23:36:54.882Z,23.07
2018-07-23T23:39:23.912Z,25.90
2018-07-23T23:41:52.898Z,23.10
2018-07-23T23:44:21.955Z,23.03
2018-07-23T23:46:50.961Z,25.43
2018-07-23T23:49:20.514Z,25.13
2018-07-23T23:51:50.092Z,22.93
2018-07-23T23:54:19.481Z,23.30
2018-07-23T23:56:48.473Z,23.43
2018-07-23T23:59:17.444Z,24.37
